Ana Sayfa
METAR-TAF:

METAR-TAF

Havaalanları :

Manado, Endonezya

Enlem: 01-32N, Boylam: 124-55E, yükseklik: 80 m

Güncel hava durumu gözlemi

Rapor saat 18:30 UTC de 19 dakika önce yapıldı.
Rüzgar değişken yönden 1 kt
Sıcaklık 24°C
Nem 94%
Basınç 1011 hPa
Görüş mesafesi: 9000 m
2100 ft yükseklikte parçalı bulutlu

METAR: WAMM 191830Z VRB01KT 9000 SCT021 24/23 Q1011 NOSIG

Saat: 01:49 (18:49 UTC)

Tahmin

Rapor saat 17:00 UTC de 1 saat ve 49 dakika önce yapıldı.
Ayın 19'si saat 18 UTC'den ayın 20'si saat 24 UTC'ye kadar geçerli Tahmin
Rüzgar doğu/kuzeydoğudan 5 kt
Görüş mesafesi: 9000 m
2100 ft yükseklikte parçalı bulutlu

TAF: WAMM 191700Z 1918/2024 06005KT 9000 SCT021

4.000'den fazla havaalanı için hava durumu gözlemleri ve tahminleri (METAR ve TAF raporları).

Kullanılabilir istasyonlar harita üzerinde sarı ve kırmızı noktalarla gösterilir.

İstasyonun adını görmek için fareyi noktanın üzerinde gezdirin.

Sonrasında hava gözlem ve tahminlerini görmek için tıklayın.

Haritayı değiştirmek için: yaklaştırmak için siyah artı işaretli yeşil düğmeye ve uzaklaştırmak için de eksi işaretli düğmeye hızla tıklayın; bitişik haritalar için yeşil okları kullanın.


METAR-TAF: